Dueber, Ohio
Current Conditions -  °F | °C
As of 6:51 AM on Saturday 25 Oct 2014 (Local Time) from KCAK Reporting Station
Few Clouds Few Clouds  
Wind Chill: 41°   Ceiling: Unl
Heat Index: 44°   Visibility: 10mi
Dew Point: 38°   Wind: 6mph
Humidity: 79%   Direction: 210°SSW
Pressure: 29.94"   Gusts: NA
Location:  40.7516°N, 81.4187°W
Report Text: KCAK 251051Z 21005KT 10SM FEW033 07/03 A2994 RMK AO2 SLP141 T00670033
Loading
Personal Weather Stations






























Interactive Weather Map
Tropical Storm Tracking
New forecast layout! Learn more

10-Day Weather Forecast

Advertisements
Track Severe Weather on mobile